Cascadia, Oregon
Current Conditions -  °F | °C
As of 3:15 PM on Thursday 18 Dec 2014 (Local Time) from KCVO Reporting Station
Overcast Overcast  
Wind Chill: 54°   Ceiling: 7000
Heat Index: 54°   Visibility: 10mi
Dew Point: 46°   Wind: 5mph
Humidity: 77%   Direction: 180°S
Pressure: 29.85"   Gusts: NA
Location:  44.4°N, 122.48°W
Report Text: KCVO 182315Z AUTO 18004KT 10SM BKN070 OVC085 12/08 A2985 RMK AO1
Loading
Personal Weather Stations






























Interactive Weather Map New forecast layout! Learn more

10-Day Weather Forecast

Advertisements
Track Severe Weather on mobile